Time;durP1;ratioP1;P1;durP2;ratioP2;P2;SDS_P1;SDS_P2;PMS_P1;PMS_P2;Temp;Humidity;BMP_temperature;BMP_pressure;BME280_temperature;BME280_humidity;BME280_pressure;Samples;Min_cycle;Max_cycle;Signal;HPM_P1;HPM_P2
2023/04/27 00:01:35;;;;;;;2.70;2.38;;;10.00;67.60;;;;;;5001349;28;20049;-81
2023/04/27 00:04:05;;;;;;;3.33;2.60;;;10.00;67.70;;;;;;5001861;28;20033;-81
2023/04/27 00:06:31;;;;;;;2.97;2.45;;;10.00;67.80;;;;;;5034920;28;20024;-79
2023/04/27 00:08:58;;;;;;;3.78;2.45;;;9.90;67.80;;;;;;4985725;28;20037;-80
2023/04/27 00:11:24;;;;;;;3.15;2.50;;;9.90;67.80;;;;;;5002168;28;20199;-79
2023/04/27 00:13:50;;;;;;;3.42;2.40;;;9.80;67.80;;;;;;5017139;28;20489;-79
2023/04/27 00:16:16;;;;;;;3.15;2.50;;;9.90;67.90;;;;;;5035329;28;20052;-80
2023/04/27 00:18:41;;;;;;;2.88;2.38;;;9.80;67.80;;;;;;5001281;28;20116;-80
2023/04/27 00:21:10;;;;;;;3.33;2.42;;;9.80;67.90;;;;;;5017258;28;20517;-80
2023/04/27 00:23:36;;;;;;;3.05;2.45;;;9.80;67.90;;;;;;5001545;28;20463;-80
2023/04/27 00:26:02;;;;;;;3.70;2.42;;;9.70;67.80;;;;;;5017019;28;20022;-79
2023/04/27 00:28:27;;;;;;;3.42;2.50;;;9.70;67.90;;;;;;5034691;28;20041;-81
2023/04/27 00:30:53;;;;;;;3.00;2.30;;;9.70;67.90;;;;;;5000719;28;20037;-80
2023/04/27 00:33:20;;;;;;;3.47;2.30;;;9.60;67.90;;;;;;5000932;28;20497;-80
2023/04/27 00:35:46;;;;;;;3.38;2.40;;;9.60;68.00;;;;;;5017041;28;20171;-80
2023/04/27 00:38:13;;;;;;;3.60;2.78;;;9.60;68.00;;;;;;5000973;28;20029;-79
2023/04/27 00:40:39;;;;;;;3.28;2.55;;;9.50;67.90;;;;;;5017103;28;20013;-81
2023/04/27 00:43:05;;;;;;;3.00;2.33;;;9.50;68.00;;;;;;5001043;28;20025;-80
2023/04/27 00:45:30;;;;;;;2.33;2.13;;;9.50;68.00;;;;;;5000533;28;20459;-80
2023/04/27 00:47:57;;;;;;;4.25;2.30;;;9.40;67.90;;;;;;4984158;28;20091;-80
2023/04/27 00:50:30;;;;;;;2.40;2.20;;;9.40;68.00;;;;;;5016407;28;20076;-79
2023/04/27 00:52:56;;;;;;;3.13;2.55;;;9.40;68.00;;;;;;5034241;28;20033;-82
2023/04/27 00:55:25;;;;;;;3.80;2.63;;;9.40;68.00;;;;;;5000859;28;20466;-80
2023/04/27 00:57:50;;;;;;;3.35;2.58;;;9.30;68.00;;;;;;4999797;28;20030;-81
2023/04/27 01:00:16;;;;;;;3.38;2.47;;;9.30;68.00;;;;;;5034198;28;20045;-80
2023/04/27 01:02:42;;;;;;;4.22;2.80;;;9.30;68.10;;;;;;5000241;28;20079;-79
2023/04/27 01:05:09;;;;;;;3.45;2.47;;;9.20;68.00;;;;;;5016483;28;20462;-80
2023/04/27 01:07:38;;;;;;;3.97;2.50;;;9.20;68.20;;;;;;5000203;28;20061;-80
2023/04/27 01:10:06;;;;;;;3.63;2.67;;;9.20;68.20;;;;;;5015677;28;20051;-80
2023/04/27 01:12:32;;;;;;;3.83;2.42;;;9.20;68.20;;;;;;4999915;28;20021;-80
2023/04/27 01:14:58;;;;;;;2.90;2.35;;;9.10;68.20;;;;;;5016066;28;20428;-80
2023/04/27 01:17:24;;;;;;;3.70;2.40;;;9.10;68.80;;;;;;4999741;28;20123;-80
2023/04/27 01:19:50;;;;;;;3.45;2.42;;;9.10;68.20;;;;;;5000714;28;20033;-80
2023/04/27 01:22:16;;;;;;;3.58;2.30;;;9.00;68.20;;;;;;5015846;28;20029;-79
2023/04/27 01:24:42;;;;;;;3.20;2.53;;;9.00;68.20;;;;;;5015997;28;20029;-80
2023/04/27 01:27:08;;;;;;;4.10;2.55;;;9.00;68.20;;;;;;4999651;28;20486;-80
2023/04/27 01:29:36;;;;;;;3.08;2.47;;;9.00;68.20;;;;;;5000186;28;20033;-82
2023/04/27 01:32:01;;;;;;;3.28;2.65;;;8.90;68.20;;;;;;5016036;28;20025;-80
2023/04/27 01:34:27;;;;;;;3.42;2.50;;;8.90;68.30;;;;;;5016698;28;20328;-80
2023/04/27 01:36:53;;;;;;;4.55;2.72;;;8.90;68.20;;;;;;4999488;28;20060;-79
2023/04/27 01:39:20;;;;;;;3.97;2.63;;;8.90;68.30;;;;;;4984173;28;20034;-80
2023/04/27 01:41:46;;;;;;;3.78;2.50;;;8.80;68.30;;;;;;4999645;28;20120;-80
2023/04/27 01:44:12;;;;;;;3.67;2.80;;;8.80;68.30;;;;;;4984218;28;20029;-81
2023/04/27 01:46:37;;;;;;;4.03;2.65;;;8.80;68.30;;;;;;4999791;28;20029;-78
2023/04/27 01:49:03;;;;;;;3.80;2.88;;;8.70;68.30;;;;;;4983536;28;20103;-79
2023/04/27 01:51:29;;;;;;;3.20;2.40;;;8.70;68.30;;;;;;5000057;28;20129;-79
2023/04/27 01:53:55;;;;;;;3.55;2.55;;;8.70;68.30;;;;;;4999406;28;20022;-80
2023/04/27 01:56:21;;;;;;;3.95;2.95;;;8.60;68.30;;;;;;5016010;28;20040;-80
2023/04/27 01:58:47;;;;;;;3.45;2.63;;;8.60;68.30;;;;;;4999796;28;20033;-79
2023/04/27 02:01:12;;;;;;;3.83;2.78;;;8.60;68.40;;;;;;5000248;28;20026;-80
2023/04/27 02:03:38;;;;;;;4.78;2.65;;;8.60;68.40;;;;;;4999423;28;20026;-79
2023/04/27 02:06:05;;;;;;;4.32;2.72;;;8.50;68.40;;;;;;5015852;28;20079;-80
2023/04/27 02:08:30;;;;;;;4.18;2.90;;;8.50;68.40;;;;;;5015646;28;20033;-80
2023/04/27 02:10:56;;;;;;;3.92;2.80;;;8.50;68.50;;;;;;5015788;28;20382;-79
2023/04/27 02:13:22;;;;;;;3.72;2.85;;;8.50;68.40;;;;;;5000335;28;20036;-80
2023/04/27 02:15:48;;;;;;;3.42;2.92;;;8.50;68.40;;;;;;5015640;28;20053;-79
2023/04/27 02:18:14;;;;;;;4.30;3.30;;;8.40;68.40;;;;;;4999324;28;20116;-80
2023/04/27 02:20:40;;;;;;;3.08;2.53;;;8.40;68.40;;;;;;5015405;28;20168;-79
2023/04/27 02:23:06;;;;;;;4.07;2.90;;;8.30;68.40;;;;;;4986942;28;20036;-81
2023/04/27 02:25:36;;;;;;;4.43;2.63;;;8.30;68.40;;;;;;5003254;28;20029;-79
2023/04/27 02:28:01;;;;;;;4.22;2.80;;;8.30;68.50;;;;;;5019887;28;20045;-80
2023/04/27 02:30:27;;;;;;;4.85;2.80;;;8.30;68.70;;;;;;5019758;28;20383;-79
2023/04/27 02:32:59;;;;;;;3.75;2.65;;;8.20;68.40;;;;;;5003398;28;20374;-80
2023/04/27 02:35:25;;;;;;;3.67;2.63;;;8.20;68.50;;;;;;5019516;28;20389;-79
2023/04/27 02:37:51;;;;;;;3.35;2.90;;;8.20;68.50;;;;;;5037485;28;20088;-80
2023/04/27 02:40:17;;;;;;;3.45;2.88;;;8.20;68.50;;;;;;5003224;28;20439;-79
2023/04/27 02:42:42;;;;;;;3.80;2.88;;;8.10;68.50;;;;;;4986683;28;20018;-79
2023/04/27 02:45:10;;;;;;;4.40;2.90;;;8.10;68.50;;;;;;5002873;28;20026;-79
2023/04/27 02:47:36;;;;;;;3.60;2.58;;;8.10;68.60;;;;;;5003357;28;20029;-80
2023/04/27 02:50:02;;;;;;;3.15;2.35;;;8.10;68.60;;;;;;5036500;28;20087;-80
2023/04/27 02:52:32;;;;;;;2.90;2.35;;;8.00;68.60;;;;;;5003080;28;20030;-80
2023/04/27 02:54:58;;;;;;;4.07;3.05;;;8.00;68.60;;;;;;5002367;28;20025;-80
2023/04/27 02:57:24;;;;;;;3.80;2.60;;;8.00;68.60;;;;;;5037226;28;20075;-79
2023/04/27 02:59:50;;;;;;;3.95;3.00;;;8.00;68.60;;;;;;5002804;28;20466;-79
2023/04/27 03:02:15;;;;;;;3.33;2.85;;;7.90;68.50;;;;;;5002669;28;20029;-79
2023/04/27 03:04:42;;;;;;;3.42;2.65;;;7.90;68.50;;;;;;5002341;28;20425;-79
2023/04/27 03:07:08;;;;;;;3.22;2.80;;;7.90;69.20;;;;;;5019090;28;20033;-79
2023/04/27 03:09:36;;;;;;;3.83;2.67;;;7.90;68.60;;;;;;5003171;28;20117;-78
2023/04/27 03:12:03;;;;;;;3.40;2.60;;;7.80;68.60;;;;;;5003319;28;20056;-80
2023/04/27 03:14:29;;;;;;;3.97;2.85;;;7.80;68.60;;;;;;5002011;28;20057;-80
2023/04/27 03:16:56;;;;;;;3.60;2.60;;;7.80;68.60;;;;;;5018566;28;20112;-80
2023/04/27 03:19:22;;;;;;;3.80;3.25;;;7.80;68.70;;;;;;5018037;28;20021;-80
2023/04/27 03:21:49;;;;;;;3.55;2.83;;;7.80;68.70;;;;;;5018476;28;20033;-79
2023/04/27 03:24:16;;;;;;;3.35;2.60;;;7.70;68.60;;;;;;5002084;28;20128;-80
2023/04/27 03:26:41;;;;;;;3.47;2.80;;;7.70;68.60;;;;;;5018533;28;20471;-81
2023/04/27 03:29:07;;;;;;;3.42;2.78;;;7.70;68.70;;;;;;5001855;28;20040;-81
2023/04/27 03:31:33;;;;;;;4.05;2.75;;;7.70;68.70;;;;;;5002304;28;20042;-80
2023/04/27 03:33:59;;;;;;;3.63;2.85;;;7.60;68.60;;;;;;5017325;28;20129;-80
2023/04/27 03:36:25;;;;;;;3.53;2.78;;;7.60;68.60;;;;;;5001941;28;20029;-79
2023/04/27 03:38:51;;;;;;;4.07;3.05;;;7.60;68.70;;;;;;4985761;28;20053;-79
2023/04/27 03:41:17;;;;;;;4.45;3.00;;;7.60;68.70;;;;;;5001659;28;20037;-82
2023/04/27 03:43:43;;;;;;;3.78;2.75;;;7.50;68.70;;;;;;5002292;28;20034;-80
2023/04/27 03:46:09;;;;;;;3.13;2.70;;;7.50;68.70;;;;;;5018025;28;20080;-79
2023/04/27 03:48:36;;;;;;;3.35;2.72;;;7.50;68.70;;;;;;4969928;28;20136;-81
2023/04/27 03:51:02;;;;;;;3.50;2.70;;;7.50;68.70;;;;;;5018576;28;20072;-80
2023/04/27 03:53:28;;;;;;;4.03;2.72;;;7.50;68.70;;;;;;5018097;28;20025;-79
2023/04/27 03:55:53;;;;;;;4.45;3.30;;;7.40;68.70;;;;;;5002244;28;20080;-80
2023/04/27 03:58:19;;;;;;;3.65;2.78;;;7.40;68.70;;;;;;5018101;28;20075;-79
2023/04/27 04:01:09;;;;;;;3.53;2.63;;;7.40;68.70;;;;;;5007878;28;20466;-78
2023/04/27 04:03:36;;;;;;;3.63;2.70;;;7.40;68.70;;;;;;5001924;28;20033;-80
2023/04/27 04:06:05;;;;;;;3.72;2.88;;;7.40;68.80;;;;;;5001358;28;20362;-80
2023/04/27 04:08:31;;;;;;;4.47;3.10;;;7.30;68.80;;;;;;5001567;28;20048;-79
2023/04/27 04:10:57;;;;;;;3.90;2.70;;;7.30;68.80;;;;;;5000915;28;20060;-79
2023/04/27 04:13:23;;;;;;;3.65;2.58;;;7.30;68.80;;;;;;5001146;28;20412;-80
2023/04/27 04:15:49;;;;;;;4.30;2.90;;;7.30;68.80;;;;;;5001113;28;20056;-81
2023/04/27 04:18:15;;;;;;;4.43;2.88;;;7.30;68.80;;;;;;5001088;28;20036;-79
2023/04/27 04:20:41;;;;;;;3.50;2.60;;;7.30;68.80;;;;;;5000961;28;20029;-80
2023/04/27 04:23:08;;;;;;;3.75;2.80;;;7.20;68.80;;;;;;5000958;28;20049;-78
2023/04/27 04:25:33;;;;;;;4.03;3.20;;;7.20;68.80;;;;;;4984812;28;20064;-79
2023/04/27 04:27:59;;;;;;;4.65;3.03;;;7.20;68.80;;;;;;5001662;28;20072;-79
2023/04/27 04:30:26;;;;;;;3.90;2.60;;;7.20;68.80;;;;;;4984968;28;20500;-79
2023/04/27 04:32:52;;;;;;;3.47;2.53;;;7.20;68.90;;;;;;5017070;28;20036;-78
2023/04/27 04:35:18;;;;;;;4.50;3.20;;;7.10;68.80;;;;;;5001435;28;20116;-80
2023/04/27 04:37:45;;;;;;;4.03;2.75;;;7.10;68.80;;;;;;4985234;28;20038;-80
2023/04/27 04:40:12;;;;;;;4.50;3.03;;;7.10;68.80;;;;;;5001126;28;20055;-79
2023/04/27 04:42:39;;;;;;;3.92;3.15;;;7.10;68.90;;;;;;4968528;28;20034;-80
2023/04/27 04:45:06;;;;;;;3.65;2.75;;;7.00;68.80;;;;;;5000784;28;20120;-78
2023/04/27 04:47:33;;;;;;;3.42;2.67;;;7.00;68.80;;;;;;5000890;28;20048;-81
2023/04/27 04:49:59;;;;;;;3.97;2.92;;;7.00;68.80;;;;;;5000621;28;20390;-79
2023/04/27 04:52:26;;;;;;;4.22;2.97;;;7.00;68.90;;;;;;5000572;28;20425;-80
2023/04/27 04:54:53;;;;;;;3.58;2.70;;;7.00;68.90;;;;;;5000681;28;20022;-79
2023/04/27 04:57:20;;;;;;;4.10;2.70;;;7.00;68.90;;;;;;5001202;28;20460;-79
2023/04/27 04:59:45;;;;;;;4.57;3.05;;;6.90;68.90;;;;;;5000270;28;20049;-79
2023/04/27 05:02:11;;;;;;;3.90;3.15;;;6.90;68.90;;;;;;5000303;28;20060;-79
2023/04/27 05:04:37;;;;;;;4.05;2.78;;;6.90;68.90;;;;;;5000392;28;20030;-81
2023/04/27 05:07:05;;;;;;;5.03;3.35;;;6.90;68.90;;;;;;5000033;28;20120;-78
2023/04/27 05:09:31;;;;;;;3.42;2.70;;;6.90;68.90;;;;;;5000411;28;20375;-79
2023/04/27 05:11:57;;;;;;;3.83;2.97;;;6.90;69.00;;;;;;5001059;28;20033;-79
2023/04/27 05:14:22;;;;;;;3.60;3.00;;;6.80;68.90;;;;;;5033543;28;20493;-79
2023/04/27 05:16:50;;;;;;;4.72;3.20;;;6.90;69.00;;;;;;5017023;28;20036;-81
2023/04/27 05:19:19;;;;;;;3.97;3.15;;;6.80;68.90;;;;;;5000134;28;20086;-82
2023/04/27 05:21:45;;;;;;;4.35;3.22;;;6.80;68.90;;;;;;5016520;28;20064;-79
2023/04/27 05:24:11;;;;;;;3.80;2.88;;;6.80;68.90;;;;;;4999688;28;20025;-79
2023/04/27 05:26:37;;;;;;;4.57;3.33;;;6.80;69.00;;;;;;5016549;28;20474;-79
2023/04/27 05:29:03;;;;;;;3.70;3.03;;;6.80;69.00;;;;;;5016471;28;20132;-79
2023/04/27 05:31:29;;;;;;;5.43;3.40;;;6.80;69.00;;;;;;5000330;28;20034;-79
2023/04/27 05:33:55;;;;;;;5.00;3.17;;;6.80;69.00;;;;;;4999914;28;20037;-79
2023/04/27 05:36:21;;;;;;;4.53;3.30;;;6.80;69.10;;;;;;5016866;28;20104;-79
2023/04/27 05:38:47;;;;;;;4.25;3.20;;;6.80;69.00;;;;;;5015899;28;20037;-79
2023/04/27 05:41:12;;;;;;;5.30;3.55;;;6.80;69.10;;;;;;5016023;28;20021;-79
2023/04/27 05:43:38;;;;;;;4.82;3.63;;;6.80;69.10;;;;;;5000178;28;20076;-80
2023/04/27 05:46:04;;;;;;;4.32;3.13;;;6.80;69.10;;;;;;4999709;28;20196;-80
2023/04/27 05:48:30;;;;;;;5.03;3.58;;;6.80;69.10;;;;;;5016304;28;20046;-80
2023/04/27 05:51:02;;;;;;;5.10;3.28;;;6.80;69.10;;;;;;4999508;28;20032;-79
2023/04/27 05:53:29;;;;;;;4.75;3.47;;;6.80;69.20;;;;;;5015882;28;20053;-79
2023/04/27 05:55:59;;;;;;;5.53;3.53;;;6.80;69.10;;;;;;5017034;28;20056;-79
2023/04/27 05:58:26;;;;;;;5.40;3.60;;;6.80;69.80;;;;;;5006043;28;20030;-79
2023/04/27 06:00:53;;;;;;;5.43;3.55;;;6.80;69.10;;;;;;5006347;28;20091;-79
2023/04/27 06:03:19;;;;;;;5.28;3.80;;;6.80;69.10;;;;;;5022724;28;20474;-80
2023/04/27 06:05:45;;;;;;;5.30;3.90;;;6.80;69.10;;;;;;5022512;28;20036;-80
2023/04/27 06:08:11;;;;;;;5.50;3.50;;;6.90;69.20;;;;;;5022198;28;20033;-79
2023/04/27 06:10:38;;;;;;;4.53;3.33;;;6.90;69.20;;;;;;5023346;28;20022;-78
2023/04/27 06:13:04;;;;;;;4.55;3.38;;;6.90;69.20;;;;;;5040483;28;20034;-79
2023/04/27 06:15:29;;;;;;;5.10;3.65;;;6.90;69.20;;;;;;5022407;28;20049;-79
2023/04/27 06:17:55;;;;;;;4.75;3.25;;;6.90;69.20;;;;;;5040055;28;20041;-79
2023/04/27 06:20:21;;;;;;;4.75;3.72;;;6.90;69.20;;;;;;5005822;28;20033;-81
2023/04/27 06:22:47;;;;;;;4.55;3.50;;;6.90;69.20;;;;;;5022278;28;20034;-80
2023/04/27 06:25:13;;;;;;;5.60;3.58;;;6.90;69.30;;;;;;5006561;28;20469;-81
2023/04/27 06:27:38;;;;;;;4.63;3.72;;;6.90;69.20;;;;;;5006401;28;20069;-81
2023/04/27 06:30:05;;;;;;;4.85;3.47;;;6.90;69.20;;;;;;5022406;28;20084;-79
2023/04/27 06:32:30;;;;;;;5.10;3.55;;;7.00;69.20;;;;;;5022282;28;20056;-80
2023/04/27 06:34:56;;;;;;;5.05;3.28;;;7.00;69.20;;;;;;5022067;28;20041;-79
2023/04/27 06:37:22;;;;;;;4.35;3.22;;;7.00;69.20;;;;;;5006051;28;20040;-80
2023/04/27 06:39:48;;;;;;;5.97;3.70;;;7.00;69.20;;;;;;4990254;28;20052;-80
2023/04/27 06:42:13;;;;;;;5.30;3.78;;;7.00;69.20;;;;;;4973453;28;20067;-79
2023/04/27 06:44:39;;;;;;;5.10;3.65;;;7.00;69.20;;;;;;5022173;28;20052;-80
2023/04/27 06:47:05;;;;;;;4.82;3.40;;;7.00;69.20;;;;;;5022066;28;20076;-79
2023/04/27 06:49:31;;;;;;;4.82;3.50;;;7.10;69.30;;;;;;5022621;28;20068;-80
2023/04/27 06:51:56;;;;;;;4.68;3.47;;;7.10;69.30;;;;;;5039435;28;20028;-80
2023/04/27 06:54:22;;;;;;;5.32;3.50;;;7.10;69.30;;;;;;4989894;28;20041;-79
2023/04/27 06:56:48;;;;;;;4.78;3.78;;;7.10;69.20;;;;;;5006486;28;20038;-81
2023/04/27 06:59:14;;;;;;;4.22;3.17;;;7.10;69.30;;;;;;5022441;28;20045;-79
2023/04/27 07:01:40;;;;;;;4.15;3.00;;;7.20;69.30;;;;;;5005741;28;20470;-81
2023/04/27 07:04:06;;;;;;;4.43;3.35;;;7.20;69.30;;;;;;5022055;28;20070;-81
2023/04/27 07:06:32;;;;;;;4.03;2.92;;;7.20;69.30;;;;;;5022273;28;20451;-79
2023/04/27 07:08:58;;;;;;;4.10;3.22;;;7.20;69.40;;;;;;5036825;28;20482;-80
2023/04/27 07:11:23;;;;;;;5.70;3.60;;;7.20;69.30;;;;;;5018822;28;20099;-81
2023/04/27 07:13:50;;;;;;;4.22;3.08;;;7.20;69.30;;;;;;5018531;28;20040;-80
2023/04/27 07:16:16;;;;;;;5.38;3.35;;;7.20;69.40;;;;;;5036808;28;20052;-81
2023/04/27 07:18:42;;;;;;;4.45;3.20;;;7.30;69.40;;;;;;5002387;28;20048;-83
2023/04/27 07:21:09;;;;;;;5.25;3.20;;;7.30;69.40;;;;;;5002751;28;20029;-82
2023/04/27 07:23:35;;;;;;;4.30;2.95;;;7.30;69.40;;;;;;5036377;28;20021;-81
2023/04/27 07:26:01;;;;;;;3.78;2.42;;;7.30;69.40;;;;;;4970208;28;20056;-81
2023/04/27 07:28:28;;;;;;;4.32;2.90;;;7.30;69.30;;;;;;5002892;28;20037;-80
2023/04/27 07:30:54;;;;;;;4.57;3.30;;;7.40;69.40;;;;;;5018467;28;20043;-81
2023/04/27 07:33:21;;;;;;;4.55;3.08;;;7.40;70.10;;;;;;4986462;28;20036;-81
2023/04/27 07:35:49;;;;;;;3.67;2.85;;;7.40;69.40;;;;;;5002279;28;20037;-82
2023/04/27 07:38:16;;;;;;;3.88;2.92;;;7.40;69.40;;;;;;5018615;28;20069;-82
2023/04/27 07:40:42;;;;;;;4.72;3.00;;;7.40;69.40;;;;;;5002975;28;20052;-81
2023/04/27 07:43:08;;;;;;;3.58;2.92;;;7.50;69.50;;;;;;5036150;28;20025;-81
2023/04/27 07:45:37;;;;;;;4.95;3.08;;;7.50;69.40;;;;;;5018669;28;20550;-82
2023/04/27 07:48:04;;;;;;;3.33;2.72;;;7.50;69.40;;;;;;5002597;28;20052;-82
2023/04/27 07:50:31;;;;;;;2.97;2.58;;;7.50;69.40;;;;;;5001991;28;20026;-82
2023/04/27 07:52:57;;;;;;;4.28;3.10;;;7.60;69.50;;;;;;5002910;28;20037;-83
2023/04/27 07:55:24;;;;;;;4.28;3.03;;;7.60;69.40;;;;;;5002087;28;20478;-80
2023/04/27 07:57:52;;;;;;;3.83;2.78;;;7.60;69.50;;;;;;5035802;28;20030;-80
2023/04/27 08:00:19;;;;;;;3.65;3.08;;;7.70;69.50;;;;;;5001747;28;20052;-83
2023/04/27 08:02:45;;;;;;;3.78;2.72;;;7.70;69.50;;;;;;5001763;28;20036;-83
2023/04/27 08:05:11;;;;;;;3.40;2.45;;;7.80;69.50;;;;;;5034761;28;20026;-85
2023/04/27 08:07:36;;;;;;;3.67;2.70;;;7.80;69.50;;;;;;5017595;28;20385;-82
2023/04/27 08:10:02;;;;;;;4.10;3.05;;;7.90;69.50;;;;;;5017455;28;20033;-81
2023/04/27 08:12:28;;;;;;;3.80;2.58;;;7.90;69.50;;;;;;5017246;28;20056;-80
2023/04/27 08:14:54;;;;;;;3.55;2.63;;;8.00;69.40;;;;;;5000720;28;20046;-80
2023/04/27 08:17:20;;;;;;;3.40;2.53;;;8.00;69.40;;;;;;5001309;28;20029;-79
2023/04/27 08:19:46;;;;;;;3.55;2.60;;;8.10;70.00;;;;;;5000650;28;20023;-82
2023/04/27 08:22:12;;;;;;;3.65;2.60;;;8.10;69.30;;;;;;5035224;28;20118;-80
2023/04/27 08:24:38;;;;;;;3.58;2.75;;;8.20;69.30;;;;;;5017035;28;20028;-80
2023/04/27 08:27:05;;;;;;;3.25;2.45;;;8.20;69.20;;;;;;4984578;28;20037;-80
2023/04/27 08:29:31;;;;;;;3.17;2.50;;;8.30;69.20;;;;;;5000314;28;20072;-81
2023/04/27 08:31:59;;;;;;;3.10;2.40;;;8.40;69.10;;;;;;5000392;28;20028;-80
2023/04/27 08:34:25;;;;;;;2.63;2.08;;;8.40;69.00;;;;;;5016996;28;20056;-80
2023/04/27 08:36:52;;;;;;;2.85;2.35;;;8.50;69.00;;;;;;5034361;28;20018;-80
2023/04/27 08:39:18;;;;;;;3.72;2.80;;;8.60;68.90;;;;;;5016642;28;20025;-80
2023/04/27 08:41:45;;;;;;;4.07;2.85;;;8.70;68.90;;;;;;5016745;28;20435;-82
2023/04/27 08:44:10;;;;;;;3.25;2.40;;;8.70;68.70;;;;;;5016489;28;20029;-81
2023/04/27 08:46:37;;;;;;;2.97;2.40;;;8.80;68.70;;;;;;4983805;28;20478;-80
2023/04/27 08:49:03;;;;;;;3.08;2.20;;;8.90;68.70;;;;;;5033970;28;20032;-81
2023/04/27 08:51:30;;;;;;;3.17;2.45;;;9.00;68.60;;;;;;5000571;28;20112;-80
2023/04/27 08:53:57;;;;;;;3.08;2.33;;;9.10;68.60;;;;;;4985107;28;20512;-82
2023/04/27 08:56:26;;;;;;;3.05;2.33;;;9.10;68.40;;;;;;5000465;28;20087;-80
2023/04/27 08:58:53;;;;;;;2.90;2.20;;;9.20;68.40;;;;;;4999875;28;20022;-80
2023/04/27 09:01:19;;;;;;;2.40;2.00;;;9.30;68.30;;;;;;5017118;28;20046;-80
2023/04/27 09:03:45;;;;;;;2.72;2.30;;;9.40;68.30;;;;;;5034079;28;20026;-80
2023/04/27 09:06:13;;;;;;;2.80;2.28;;;9.40;68.10;;;;;;5033746;28;20105;-80
2023/04/27 09:08:47;;;;;;;2.72;2.25;;;9.50;68.10;;;;;;5016382;28;20037;-82
2023/04/27 09:11:14;;;;;;;3.03;2.42;;;9.60;68.10;;;;;;5016433;28;20485;-81
2023/04/27 09:13:43;;;;;;;2.88;2.40;;;9.70;68.60;;;;;;5016753;28;20049;-79
2023/04/27 09:16:12;;;;;;;2.05;1.90;;;9.80;67.90;;;;;;5015695;28;20533;-78
2023/04/27 09:18:41;;;;;;;2.85;2.25;;;9.80;67.90;;;;;;4999670;28;20021;-79
2023/04/27 09:21:07;;;;;;;2.80;2.30;;;9.90;67.80;;;;;;5015970;28;20439;-79
2023/04/27 09:23:36;;;;;;;2.35;1.92;;;10.00;67.70;;;;;;5015503;28;20143;-79
2023/04/27 09:26:07;;;;;;;2.75;2.10;;;10.10;67.70;;;;;;5015886;28;20018;-80
2023/04/27 09:28:34;;;;;;;2.42;2.10;;;10.20;67.60;;;;;;5000181;28;20061;-80
2023/04/27 09:31:01;;;;;;;2.70;2.22;;;10.20;67.50;;;;;;4998745;28;20033;-80
2023/04/27 09:33:28;;;;;;;2.38;2.03;;;10.40;67.60;;;;;;5033111;28;20120;-82
2023/04/27 09:35:55;;;;;;;4.57;2.50;;;10.40;67.40;;;;;;5015595;28;20033;-79
2023/04/27 09:38:22;;;;;;;3.13;2.30;;;10.50;67.40;;;;;;5015647;28;20061;-80
2023/04/27 09:40:49;;;;;;;2.58;2.13;;;10.60;67.40;;;;;;4999385;28;20033;-83
2023/04/27 09:43:15;;;;;;;4.28;2.50;;;10.70;67.50;;;;;;4999299;28;20060;-78
2023/04/27 09:45:41;;;;;;;3.80;2.60;;;10.80;67.30;;;;;;5015212;28;20485;-78
2023/04/27 09:48:08;;;;;;;5.13;2.83;;;10.90;67.00;;;;;;5033480;28;20040;-76
2023/04/27 09:50:39;;;;;;;3.58;2.40;;;11.00;66.70;;;;;;5015222;28;20032;-79
2023/04/27 09:53:08;;;;;;;3.45;2.50;;;11.10;66.60;;;;;;5015344;28;20471;-77
2023/04/27 09:55:39;;;;;;;3.22;2.42;;;11.20;66.60;;;;;;5015759;28;20067;-78
2023/04/27 09:58:59;;;;;;;3.22;2.72;;;11.30;66.50;;;;;;5015244;28;20040;-77
2023/04/27 10:01:36;;;;;;;3.90;2.67;;;11.40;66.50;;;;;;4955857;28;20427;-76
2023/04/27 10:04:30;;;;;;;3.78;2.42;;;11.50;66.40;;;;;;5007768;28;20156;-79
2023/04/27 10:07:13;;;;;;;3.80;2.65;;;11.60;66.50;;;;;;5033030;28;20032;-79
2023/04/27 10:09:52;;;;;;;3.10;2.78;;;11.70;65.90;;;;;;5015744;28;20145;-77
2023/04/27 10:12:18;;;;;;;3.03;2.50;;;11.80;65.50;;;;;;5015064;28;20037;-76
2023/04/27 10:14:55;;;;;;;3.20;2.60;;;11.90;65.20;;;;;;5015343;28;20052;-76
2023/04/27 10:17:28;;;;;;;3.03;2.45;;;12.00;65.00;;;;;;5015451;28;20022;-77
2023/04/27 10:19:56;;;;;;;3.67;2.70;;;12.10;65.00;;;;;;5015677;28;20080;-77
2023/04/27 10:22:23;;;;;;;4.05;3.05;;;12.20;65.00;;;;;;5015355;28;20021;-76
2023/04/27 10:24:50;;;;;;;3.88;2.75;;;12.30;65.00;;;;;;5015807;28;20049;-77
2023/04/27 10:27:22;;;;;;;3.75;2.47;;;12.40;65.00;;;;;;5015385;28;20466;-78
2023/04/27 10:29:49;;;;;;;4.30;2.78;;;12.40;64.90;;;;;;5032628;28;20452;-77
2023/04/27 10:32:25;;;;;;;3.45;2.67;;;12.50;64.90;;;;;;5015454;28;20033;-76
2023/04/27 10:35:02;;;;;;;3.30;2.33;;;12.60;65.00;;;;;;4998554;28;20454;-77
2023/04/27 10:37:48;;;;;;;3.13;2.38;;;12.70;65.00;;;;;;5014850;28;20036;-77
2023/04/27 10:40:17;;;;;;;4.20;2.53;;;12.80;65.00;;;;;;5014651;28;20437;-76
2023/04/27 10:42:44;;;;;;;3.83;2.47;;;12.90;65.00;;;;;;4999966;28;20026;-76
2023/04/27 10:45:14;;;;;;;2.47;2.22;;;13.00;65.00;;;;;;5002370;28;20465;-76
2023/04/27 10:47:42;;;;;;;2.80;2.42;;;13.10;65.00;;;;;;5035913;28;20030;-77
2023/04/27 10:50:12;;;;;;;3.50;2.33;;;13.20;65.00;;;;;;5002809;28;20037;-76
2023/04/27 10:52:47;;;;;;;3.30;2.50;;;13.30;64.90;;;;;;5018948;28;20025;-77
2023/04/27 10:55:21;;;;;;;2.80;2.28;;;13.40;65.00;;;;;;5002171;28;20095;-77
2023/04/27 10:57:50;;;;;;;2.85;2.20;;;13.50;65.00;;;;;;5018638;28;20029;-76
2023/04/27 11:00:32;;;;;;;2.95;2.47;;;13.60;65.00;;;;;;5018473;28;20108;-76
2023/04/27 11:03:09;;;;;;;3.28;2.55;;;13.70;65.20;;;;;;5018978;28;20033;-77
2023/04/27 11:05:35;;;;;;;3.15;2.20;;;13.80;65.20;;;;;;5036490;28;20029;-77
2023/04/27 11:08:05;;;;;;;2.85;2.38;;;13.90;65.20;;;;;;5018275;28;20095;-76
2023/04/27 11:10:32;;;;;;;3.08;2.25;;;14.00;65.30;;;;;;5018433;28;20030;-77
2023/04/27 11:12:58;;;;;;;2.88;2.38;;;14.10;65.30;;;;;;5002313;28;20029;-78
2023/04/27 11:15:25;;;;;;;3.35;2.25;;;14.10;65.30;;;;;;5015526;28;20450;-79
2023/04/27 11:17:50;;;;;;;3.22;2.42;;;14.20;65.30;;;;;;5014832;28;20133;-80
2023/04/27 11:20:24;;;;;;;3.42;2.53;;;14.30;65.30;;;;;;4999341;28;20522;-79
2023/04/27 11:22:50;;;;;;;3.05;2.53;;;14.40;65.30;;;;;;4998564;28;20021;-77
2023/04/27 11:25:16;;;;;;;3.38;2.30;;;14.50;65.30;;;;;;4998058;28;20123;-76
2023/04/27 11:27:44;;;;;;;3.10;2.28;;;14.50;65.30;;;;;;5014719;28;20066;-75
2023/04/27 11:30:23;;;;;;;3.22;2.40;;;14.60;65.40;;;;;;4998496;28;20038;-76
2023/04/27 11:32:49;;;;;;;2.83;2.20;;;14.70;65.50;;;;;;5014718;28;20040;-76
2023/04/27 11:35:17;;;;;;;2.70;2.38;;;14.80;65.50;;;;;;5016239;28;20454;-77
2023/04/27 11:37:43;;;;;;;2.85;2.40;;;14.80;65.50;;;;;;4998636;28;20390;-77
2023/04/27 11:40:12;;;;;;;2.70;2.13;;;14.90;65.60;;;;;;5014587;28;20025;-75
2023/04/27 11:42:45;;;;;;;3.20;2.40;;;15.00;66.30;;;;;;4998554;28;20120;-76
2023/04/27 11:45:12;;;;;;;3.83;2.20;;;15.10;65.80;;;;;;5014552;28;20033;-76
2023/04/27 11:47:39;;;;;;;3.65;2.53;;;15.10;65.80;;;;;;4998617;28;20022;-76
2023/04/27 11:50:07;;;;;;;2.92;2.40;;;15.20;65.90;;;;;;5014751;28;20034;-77
2023/04/27 11:52:38;;;;;;;3.60;2.55;;;15.20;65.80;;;;;;5014348;28;20030;-77
2023/04/27 11:55:05;;;;;;;2.72;2.30;;;15.30;66.00;;;;;;5013748;28;20494;-78
2023/04/27 11:57:35;;;;;;;2.92;2.40;;;15.40;66.00;;;;;;5014449;28;20431;-76
2023/04/27 12:00:09;;;;;;;2.83;2.55;;;15.40;66.00;;;;;;5013990;28;20026;-77
2023/04/27 12:02:39;;;;;;;3.28;2.58;;;15.50;66.20;;;;;;5015429;28;20530;-76
2023/04/27 12:05:06;;;;;;;3.38;2.40;;;15.60;66.30;;;;;;4997906;28;20096;-77
2023/04/27 12:07:35;;;;;;;2.67;2.28;;;15.60;66.30;;;;;;5013628;28;20022;-77
2023/04/27 12:10:01;;;;;;;3.10;2.55;;;15.70;66.40;;;;;;5015448;28;20056;-77
2023/04/27 12:12:27;;;;;;;2.50;2.22;;;15.80;66.50;;;;;;5014001;28;20030;-77
2023/04/27 12:14:53;;;;;;;2.88;2.50;;;15.80;66.50;;;;;;4997481;28;20046;-76
2023/04/27 12:17:19;;;;;;;2.65;2.42;;;15.80;66.60;;;;;;5015365;28;20068;-77
2023/04/27 12:19:45;;;;;;;2.80;2.40;;;15.90;66.60;;;;;;5014801;28;20484;-76
2023/04/27 12:22:11;;;;;;;4.10;2.88;;;16.00;66.70;;;;;;4997776;28;20030;-76
2023/04/27 12:24:37;;;;;;;3.75;2.38;;;16.00;66.70;;;;;;5013701;28;20029;-76
2023/04/27 12:27:03;;;;;;;3.83;2.55;;;16.00;66.60;;;;;;4997573;28;20099;-76
2023/04/27 12:29:30;;;;;;;3.72;2.60;;;16.10;66.70;;;;;;4997393;28;20033;-77
2023/04/27 12:31:57;;;;;;;4.30;2.70;;;16.20;66.70;;;;;;4997214;28;20048;-76
2023/04/27 12:34:23;;;;;;;3.13;2.65;;;16.20;66.80;;;;;;5015565;28;20033;-77
2023/04/27 12:36:49;;;;;;;3.33;2.53;;;16.30;66.70;;;;;;5013903;28;20026;-76
2023/04/27 12:39:20;;;;;;;2.58;2.30;;;16.30;66.80;;;;;;4997465;28;20037;-77
2023/04/27 12:41:49;;;;;;;3.17;2.60;;;16.30;66.80;;;;;;5013398;28;20360;-76
2023/04/27 12:44:16;;;;;;;3.15;2.55;;;16.40;66.80;;;;;;5013667;28;20117;-76
2023/04/27 12:46:43;;;;;;;3.47;2.80;;;16.40;66.80;;;;;;5014695;28;20026;-78
2023/04/27 12:49:11;;;;;;;2.92;2.53;;;16.50;66.90;;;;;;5013194;28;20048;-77
2023/04/27 12:51:37;;;;;;;3.10;2.67;;;16.50;66.80;;;;;;4996853;28;20034;-77
2023/04/27 12:54:04;;;;;;;3.38;2.58;;;16.60;66.80;;;;;;5013010;28;20061;-77
2023/04/27 12:56:30;;;;;;;3.45;2.58;;;16.60;66.80;;;;;;5014466;28;20030;-78